createdAt,value
2022-12-19T00:00:37.860Z,54.14
2022-12-19T00:01:38.112Z,53.66
2022-12-19T00:02:37.965Z,54.14
2022-12-19T00:03:37.819Z,53.82
2022-12-19T00:04:37.816Z,53.98
2022-12-19T00:05:37.760Z,53.82
2022-12-19T00:06:37.887Z,53.82
2022-12-19T00:07:38.843Z,53.82
2022-12-19T00:08:37.743Z,53.50
2022-12-19T00:09:37.743Z,53.01
2022-12-19T00:10:37.811Z,53.50
2022-12-19T00:11:37.770Z,53.66
2022-12-19T00:12:37.762Z,53.82
2022-12-19T00:13:41.077Z,53.82
2022-12-19T00:14:37.760Z,54.14
2022-12-19T00:15:37.759Z,54.30
2022-12-19T00:16:37.842Z,54.14
2022-12-19T00:17:37.740Z,54.14
2022-12-19T00:18:37.809Z,53.50
2022-12-19T00:19:37.755Z,53.66
2022-12-19T00:20:37.760Z,53.66
2022-12-19T00:21:37.742Z,53.66
2022-12-19T00:22:37.789Z,53.33
2022-12-19T00:23:37.741Z,53.66
2022-12-19T00:24:37.774Z,53.50
2022-12-19T00:25:37.735Z,53.50
2022-12-19T00:26:37.733Z,53.50
2022-12-19T00:27:37.663Z,53.66
2022-12-19T00:28:37.733Z,53.50
2022-12-19T00:29:37.735Z,53.66
2022-12-19T00:30:37.682Z,53.66
2022-12-19T00:31:37.763Z,53.50
2022-12-19T00:32:37.707Z,53.82
2022-12-19T00:33:37.883Z,53.66
2022-12-19T00:34:38.767Z,53.66
2022-12-19T00:35:37.678Z,53.66
2022-12-19T00:36:37.682Z,52.85
2022-12-19T00:37:41.415Z,53.98
2022-12-19T00:38:38.553Z,53.82
2022-12-19T00:39:37.679Z,54.46
2022-12-19T00:40:37.637Z,53.82
2022-12-19T00:41:37.617Z,53.98
2022-12-19T00:42:37.647Z,53.50
2022-12-19T00:43:37.609Z,53.50
2022-12-19T00:44:37.632Z,53.50
2022-12-19T00:45:37.698Z,54.14
2022-12-19T00:46:37.566Z,53.98
2022-12-19T00:47:37.633Z,53.33
2022-12-19T00:48:37.537Z,54.14
2022-12-19T00:49:37.558Z,53.98
2022-12-19T00:50:37.556Z,53.17
2022-12-19T00:51:37.631Z,53.50
2022-12-19T00:52:37.517Z,53.50
2022-12-19T00:53:37.567Z,53.50
2022-12-19T00:54:37.567Z,53.50
2022-12-19T00:55:37.549Z,53.66
2022-12-19T00:56:38.499Z,53.33
2022-12-19T00:57:37.563Z,53.82
2022-12-19T00:58:39.081Z,53.98
2022-12-19T00:59:37.487Z,53.66
2022-12-19T01:00:38.260Z,53.66
2022-12-19T01:01:39.767Z,54.30
2022-12-19T01:02:37.564Z,54.30
2022-12-19T01:03:37.443Z,54.62
2022-12-19T01:04:41.491Z,55.43
2022-12-19T01:05:38.368Z,55.91
2022-12-19T01:06:37.413Z,56.56
2022-12-19T01:07:37.390Z,55.43
2022-12-19T01:08:37.368Z,54.14
2022-12-19T01:09:37.412Z,54.79
2022-12-19T01:10:37.361Z,54.62
2022-12-19T01:11:37.419Z,54.79
2022-12-19T01:12:37.448Z,54.62
2022-12-19T01:13:37.368Z,53.98
2022-12-19T01:14:37.390Z,53.50
2022-12-19T01:15:37.413Z,53.82
2022-12-19T01:16:37.471Z,54.14
2022-12-19T01:17:44.190Z,53.50
2022-12-19T01:18:38.334Z,53.82
2022-12-19T01:19:43.306Z,53.66
2022-12-19T01:20:39.360Z,53.01
2022-12-19T01:21:37.342Z,54.46
2022-12-19T01:22:37.367Z,53.82
2022-12-19T01:23:37.444Z,54.79
2022-12-19T01:24:37.331Z,54.62
2022-12-19T01:25:40.456Z,53.82
2022-12-19T01:26:38.378Z,53.82
2022-12-19T01:27:37.366Z,53.82
2022-12-19T01:28:37.332Z,53.82
2022-12-19T01:29:51.157Z,53.98
2022-12-19T01:30:38.302Z,54.30
2022-12-19T01:31:37.361Z,54.30
2022-12-19T01:32:37.293Z,54.62
2022-12-19T01:33:37.247Z,56.07
2022-12-19T01:34:37.280Z,56.88
2022-12-19T01:35:37.287Z,55.91
2022-12-19T01:36:40.143Z,55.11
2022-12-19T01:37:37.225Z,56.88
2022-12-19T01:38:37.262Z,56.24
2022-12-19T01:39:37.237Z,56.40
2022-12-19T01:40:37.269Z,56.72
2022-12-19T01:41:37.392Z,55.59
2022-12-19T01:42:37.281Z,56.40
2022-12-19T01:43:37.214Z,57.52
2022-12-19T01:44:37.170Z,55.27
2022-12-19T01:45:43.525Z,55.59
2022-12-19T01:46:39.377Z,57.04
2022-12-19T01:47:37.203Z,54.46
2022-12-19T01:48:37.238Z,54.79
2022-12-19T01:49:37.183Z,54.62
2022-12-19T01:50:37.215Z,54.46
2022-12-19T01:51:37.240Z,54.46
2022-12-19T01:52:37.213Z,54.46
2022-12-19T01:53:37.956Z,54.79
2022-12-19T01:54:38.158Z,54.62
2022-12-19T01:55:37.085Z,54.95
2022-12-19T01:56:38.819Z,54.46
2022-12-19T01:57:37.017Z,54.14
2022-12-19T01:58:37.016Z,54.46
2022-12-19T01:59:36.997Z,54.46
2022-12-19T02:00:37.011Z,53.98
2022-12-19T02:01:49.549Z,54.30
2022-12-19T02:02:38.195Z,54.14
2022-12-19T02:03:37.008Z,54.46
2022-12-19T02:04:36.957Z,54.14
2022-12-19T02:05:37.017Z,55.11
2022-12-19T02:06:37.743Z,54.95
2022-12-19T02:07:36.986Z,54.30
2022-12-19T02:08:36.973Z,53.98
2022-12-19T02:09:36.958Z,53.50
2022-12-19T02:10:36.997Z,53.98
2022-12-19T02:11:37.045Z,54.30
2022-12-19T02:12:37.051Z,54.46
2022-12-19T02:13:37.052Z,53.66
2022-12-19T02:14:36.901Z,54.14
2022-12-19T02:15:37.106Z,55.43
2022-12-19T02:16:37.120Z,54.46
2022-12-19T02:17:37.003Z,54.14
2022-12-19T02:18:37.046Z,54.46
2022-12-19T02:19:36.957Z,54.14
2022-12-19T02:20:37.012Z,53.98
2022-12-19T02:21:36.985Z,53.98
2022-12-19T02:22:36.961Z,54.62
2022-12-19T02:23:36.982Z,54.14
2022-12-19T02:24:36.937Z,54.30
2022-12-19T02:25:36.935Z,54.95
2022-12-19T02:26:36.932Z,54.30
2022-12-19T02:27:40.080Z,54.30
2022-12-19T02:28:37.986Z,54.62
2022-12-19T02:29:36.873Z,54.62
2022-12-19T02:30:36.897Z,53.17
2022-12-19T02:31:36.940Z,53.98
2022-12-19T02:32:36.862Z,54.79
2022-12-19T02:33:36.918Z,54.46
2022-12-19T02:34:40.040Z,53.98
2022-12-19T02:35:38.844Z,54.46
2022-12-19T02:36:38.812Z,53.66
2022-12-19T02:37:36.906Z,54.46
2022-12-19T02:38:36.858Z,54.46
2022-12-19T02:39:36.953Z,54.95
2022-12-19T02:40:36.831Z,54.95
2022-12-19T02:41:36.826Z,54.62
2022-12-19T02:42:36.816Z,54.46
2022-12-19T02:43:36.791Z,54.46
2022-12-19T02:44:36.827Z,54.79
2022-12-19T02:45:36.925Z,54.46
2022-12-19T02:46:36.838Z,54.46
2022-12-19T02:47:36.795Z,54.79
2022-12-19T02:48:36.792Z,54.46
2022-12-19T02:49:36.745Z,54.95
2022-12-19T02:50:36.886Z,54.46
2022-12-19T02:51:36.778Z,53.82
2022-12-19T02:52:36.785Z,53.98
2022-12-19T02:53:36.732Z,54.30
2022-12-19T02:54:36.710Z,54.46
2022-12-19T02:55:36.727Z,54.46
2022-12-19T02:56:36.816Z,54.62
2022-12-19T02:57:36.716Z,54.14
2022-12-19T02:58:36.742Z,54.30
2022-12-19T02:59:36.718Z,54.79
2022-12-19T03:00:36.762Z,54.14
2022-12-19T03:01:36.965Z,54.14
2022-12-19T03:02:36.840Z,54.46
2022-12-19T03:03:36.779Z,54.46
2022-12-19T03:04:36.663Z,54.14
2022-12-19T03:05:36.666Z,54.95
2022-12-19T03:06:36.674Z,55.11
2022-12-19T03:07:36.675Z,54.79
2022-12-19T03:08:36.651Z,54.95
2022-12-19T03:09:36.642Z,54.46
2022-12-19T03:10:36.662Z,54.46
2022-12-19T03:11:36.522Z,54.30
2022-12-19T03:12:36.568Z,54.79
2022-12-19T03:13:36.533Z,54.30
2022-12-19T03:14:36.584Z,54.14
2022-12-19T03:15:36.533Z,53.98
2022-12-19T03:16:36.585Z,54.14
2022-12-19T03:17:36.512Z,55.11
2022-12-19T03:18:36.605Z,53.82
2022-12-19T03:19:36.600Z,54.46
2022-12-19T03:20:36.497Z,53.66
2022-12-19T03:21:36.599Z,53.98
2022-12-19T03:22:36.614Z,53.50
2022-12-19T03:23:36.638Z,54.14
2022-12-19T03:24:36.526Z,53.98
2022-12-19T03:25:36.577Z,53.66
2022-12-19T03:26:36.545Z,55.11
2022-12-19T03:27:36.631Z,54.79
2022-12-19T03:28:36.559Z,54.62
2022-12-19T03:29:36.545Z,53.98
2022-12-19T03:30:36.517Z,54.30
2022-12-19T03:31:36.550Z,54.79
2022-12-19T03:32:36.481Z,54.30
2022-12-19T03:33:36.529Z,54.30
2022-12-19T03:34:36.502Z,53.98
2022-12-19T03:35:36.449Z,54.14
2022-12-19T03:36:36.471Z,55.11
2022-12-19T03:37:36.496Z,54.95
2022-12-19T03:38:36.582Z,55.75
2022-12-19T03:39:36.511Z,55.27
2022-12-19T03:40:36.488Z,54.46
2022-12-19T03:41:36.455Z,55.75
2022-12-19T03:42:36.434Z,55.43
2022-12-19T03:43:36.406Z,55.75
2022-12-19T03:44:36.418Z,55.59
2022-12-19T03:45:36.438Z,55.91
2022-12-19T03:46:36.437Z,54.79
2022-12-19T03:47:36.477Z,55.91
2022-12-19T03:48:36.416Z,55.43
2022-12-19T03:49:36.416Z,54.62
2022-12-19T03:50:36.446Z,54.95
2022-12-19T03:51:36.396Z,54.95
2022-12-19T03:52:36.424Z,54.30
2022-12-19T03:53:36.375Z,54.30
2022-12-19T03:54:36.424Z,54.14
2022-12-19T03:55:36.249Z,54.14
2022-12-19T03:56:36.301Z,54.62
2022-12-19T03:57:36.268Z,55.27
2022-12-19T03:58:36.294Z,53.82
2022-12-19T03:59:36.318Z,54.30
2022-12-19T04:00:36.338Z,54.62
2022-12-19T04:01:36.308Z,54.62
2022-12-19T04:02:36.754Z,54.95
2022-12-19T04:03:36.317Z,55.43
2022-12-19T04:04:36.209Z,55.27
2022-12-19T04:05:36.232Z,55.11
2022-12-19T04:06:36.247Z,55.27
2022-12-19T04:07:36.231Z,55.43
2022-12-19T04:08:36.277Z,55.27
2022-12-19T04:09:36.301Z,54.95
2022-12-19T04:10:36.286Z,55.91
2022-12-19T04:11:36.257Z,56.07
2022-12-19T04:12:36.322Z,56.07
2022-12-19T04:13:36.283Z,55.59
2022-12-19T04:14:36.232Z,57.36
2022-12-19T04:15:36.316Z,59.14
2022-12-19T04:16:36.242Z,56.24
2022-12-19T04:17:36.196Z,54.62
2022-12-19T04:18:36.259Z,55.59
2022-12-19T04:19:39.872Z,56.07
2022-12-19T04:20:38.124Z,55.59
2022-12-19T04:21:36.169Z,57.04
2022-12-19T04:22:36.150Z,57.04
2022-12-19T04:23:36.181Z,56.07
2022-12-19T04:24:36.129Z,56.56
2022-12-19T04:25:36.090Z,56.07
2022-12-19T04:26:36.169Z,56.40
2022-12-19T04:27:36.160Z,57.36
2022-12-19T04:28:36.143Z,57.20
2022-12-19T04:29:36.160Z,57.20
2022-12-19T04:30:36.776Z,56.24
2022-12-19T04:31:36.174Z,56.24
2022-12-19T04:32:36.139Z,55.91
2022-12-19T04:33:36.097Z,56.07
2022-12-19T04:34:40.206Z,56.40
2022-12-19T04:35:38.120Z,56.40
2022-12-19T04:36:36.067Z,56.72
2022-12-19T04:37:36.086Z,56.56
2022-12-19T04:38:36.069Z,56.40
2022-12-19T04:39:36.080Z,55.27
2022-12-19T04:40:40.814Z,55.91
2022-12-19T04:41:38.015Z,57.20
2022-12-19T04:42:36.118Z,55.43
2022-12-19T04:43:36.040Z,55.91
2022-12-19T04:44:36.036Z,56.24
2022-12-19T04:45:36.032Z,55.91
2022-12-19T04:46:36.037Z,55.27
2022-12-19T04:47:36.010Z,55.11
2022-12-19T04:48:35.970Z,56.24
2022-12-19T04:49:35.974Z,57.04
2022-12-19T04:50:35.958Z,56.56
2022-12-19T04:51:36.012Z,56.56
2022-12-19T04:52:36.031Z,56.40
2022-12-19T04:53:35.959Z,56.56
2022-12-19T04:54:35.966Z,57.20
2022-12-19T04:55:35.956Z,56.72
2022-12-19T04:56:35.987Z,56.72
2022-12-19T04:57:35.836Z,56.72
2022-12-19T04:58:35.899Z,56.40
2022-12-19T04:59:35.872Z,55.75
2022-12-19T05:00:35.839Z,56.40
2022-12-19T05:01:35.961Z,55.91
2022-12-19T05:02:36.053Z,57.20
2022-12-19T05:03:35.929Z,55.91
2022-12-19T05:04:35.825Z,54.62
2022-12-19T05:05:35.812Z,55.91
2022-12-19T05:06:35.826Z,56.07
2022-12-19T05:07:36.396Z,55.59
2022-12-19T05:08:35.891Z,55.59
2022-12-19T05:09:35.852Z,55.27
2022-12-19T05:10:35.859Z,55.43
2022-12-19T05:11:35.827Z,55.43
2022-12-19T05:12:35.832Z,55.43
2022-12-19T05:13:35.831Z,56.07
2022-12-19T05:14:35.880Z,55.75
2022-12-19T05:15:35.871Z,56.40
2022-12-19T05:16:35.777Z,55.11
2022-12-19T05:17:35.779Z,56.07
2022-12-19T05:18:35.835Z,57.04
2022-12-19T05:19:35.756Z,57.04
2022-12-19T05:20:35.793Z,57.36
2022-12-19T05:21:35.767Z,57.04
2022-12-19T05:22:35.736Z,56.72
2022-12-19T05:23:35.781Z,56.56
2022-12-19T05:24:35.799Z,55.43
2022-12-19T05:25:35.751Z,56.56
2022-12-19T05:26:35.692Z,56.56
2022-12-19T05:27:35.803Z,56.56
2022-12-19T05:28:35.723Z,56.07
2022-12-19T05:29:35.831Z,58.17
2022-12-19T05:30:35.764Z,60.91
2022-12-19T05:31:35.794Z,60.10
2022-12-19T05:32:35.724Z,60.26
2022-12-19T05:33:35.728Z,57.36
2022-12-19T05:34:35.673Z,56.88
2022-12-19T05:35:35.696Z,57.20
2022-12-19T05:36:35.645Z,57.52
2022-12-19T05:37:35.648Z,57.52
2022-12-19T05:38:35.672Z,68.16
2022-12-19T05:39:35.623Z,57.20
2022-12-19T05:40:35.647Z,56.24
2022-12-19T05:41:35.606Z,56.88
2022-12-19T05:42:35.624Z,56.72
2022-12-19T05:43:35.603Z,56.07
2022-12-19T05:44:35.579Z,55.59
2022-12-19T05:45:35.639Z,55.91
2022-12-19T05:46:35.784Z,55.91
2022-12-19T05:47:37.900Z,56.72
2022-12-19T05:48:35.621Z,57.04
2022-12-19T05:49:35.557Z,57.20
2022-12-19T05:50:35.466Z,57.36
2022-12-19T05:51:35.539Z,56.24
2022-12-19T05:52:35.530Z,56.72
2022-12-19T05:53:35.573Z,57.20
2022-12-19T05:54:35.451Z,57.20
2022-12-19T05:55:35.500Z,56.24
2022-12-19T05:56:35.436Z,56.72
2022-12-19T05:57:35.476Z,57.85
2022-12-19T05:58:35.455Z,57.52
2022-12-19T05:59:35.410Z,55.91
2022-12-19T06:00:35.470Z,56.40
2022-12-19T06:01:35.462Z,56.40
2022-12-19T06:02:35.805Z,57.36
2022-12-19T06:03:35.525Z,57.36
2022-12-19T06:04:35.463Z,56.40
2022-12-19T06:05:35.448Z,57.20
2022-12-19T06:06:35.370Z,55.91
2022-12-19T06:07:35.513Z,57.85
2022-12-19T06:08:35.456Z,57.52
2022-12-19T06:09:35.453Z,56.56
2022-12-19T06:10:35.420Z,56.07
2022-12-19T06:11:35.440Z,55.91
2022-12-19T06:12:35.427Z,55.43
2022-12-19T06:13:36.005Z,57.20
2022-12-19T06:14:35.410Z,55.43
2022-12-19T06:15:35.471Z,55.91
2022-12-19T06:16:35.426Z,55.91
2022-12-19T06:17:35.433Z,56.07
2022-12-19T06:18:37.459Z,57.20
2022-12-19T06:19:36.447Z,56.72
2022-12-19T06:20:35.360Z,56.56
2022-12-19T06:21:35.340Z,56.72
2022-12-19T06:22:35.355Z,56.07
2022-12-19T06:23:35.363Z,56.24
2022-12-19T06:24:35.360Z,56.24
2022-12-19T06:25:35.342Z,57.52
2022-12-19T06:26:35.299Z,56.56
2022-12-19T06:27:35.311Z,56.40
2022-12-19T06:28:35.308Z,56.88
2022-12-19T06:29:35.322Z,55.59
2022-12-19T06:30:35.295Z,57.36
2022-12-19T06:31:35.478Z,57.04
2022-12-19T06:32:38.090Z,57.20
2022-12-19T06:33:36.261Z,56.72
2022-12-19T06:35:04.619Z,56.40
2022-12-19T06:35:37.332Z,57.20
2022-12-19T06:36:35.234Z,57.04
2022-12-19T06:37:38.933Z,57.36
2022-12-19T06:38:35.273Z,55.91
2022-12-19T06:39:35.222Z,56.24
2022-12-19T06:40:35.337Z,56.56
2022-12-19T06:41:35.215Z,56.24
2022-12-19T06:42:35.263Z,55.91
2022-12-19T06:44:06.510Z,57.52
2022-12-19T06:44:36.141Z,57.52
2022-12-19T06:45:35.247Z,56.88
2022-12-19T06:46:35.346Z,57.69
2022-12-19T06:47:35.174Z,57.36
2022-12-19T06:48:35.166Z,57.85
2022-12-19T06:49:35.194Z,56.56
2022-12-19T06:50:35.253Z,56.40
2022-12-19T06:51:35.223Z,55.75
2022-12-19T06:52:35.150Z,55.75
2022-12-19T06:53:35.147Z,57.20
2022-12-19T06:54:35.116Z,56.56
2022-12-19T06:55:35.144Z,60.26
2022-12-19T06:56:35.124Z,58.49
2022-12-19T06:57:35.170Z,58.97
2022-12-19T06:58:35.135Z,58.49
2022-12-19T06:59:35.076Z,59.78
2022-12-19T07:00:35.109Z,59.62
2022-12-19T07:01:35.171Z,60.10
2022-12-19T07:02:35.138Z,59.30
2022-12-19T07:03:35.017Z,59.46
2022-12-19T07:04:34.993Z,59.62
2022-12-19T07:05:34.970Z,59.78
2022-12-19T07:06:35.036Z,59.62
2022-12-19T07:07:35.144Z,59.62
2022-12-19T07:08:34.985Z,60.10
2022-12-19T07:09:34.945Z,59.46
2022-12-19T07:10:35.104Z,59.94
2022-12-19T07:11:35.024Z,59.14
2022-12-19T07:12:34.998Z,59.30
2022-12-19T07:13:35.051Z,59.14
2022-12-19T07:14:35.008Z,59.30
2022-12-19T07:15:34.990Z,58.49
2022-12-19T07:16:35.060Z,58.97
2022-12-19T07:17:35.027Z,59.78
2022-12-19T07:18:35.350Z,58.81
2022-12-19T07:19:34.967Z,56.72
2022-12-19T07:20:34.959Z,56.56
2022-12-19T07:21:34.959Z,56.56
2022-12-19T07:22:35.027Z,58.01
2022-12-19T07:23:34.932Z,57.04
2022-12-19T07:24:35.046Z,56.40
2022-12-19T07:25:34.926Z,56.40
2022-12-19T07:26:34.924Z,57.04
2022-12-19T07:27:36.037Z,56.56
2022-12-19T07:28:35.915Z,56.56
2022-12-19T07:29:34.933Z,56.56
2022-12-19T07:34:18.976Z,56.40
2022-12-19T07:35:17.997Z,55.43
2022-12-19T07:36:17.947Z,58.33
2022-12-19T07:37:17.985Z,56.24
2022-12-19T07:38:17.980Z,56.88
2022-12-19T07:39:17.924Z,57.20
2022-12-19T07:40:17.974Z,54.62
2022-12-19T07:41:17.910Z,56.40
2022-12-19T07:42:17.910Z,55.75
2022-12-19T07:43:17.884Z,56.40
2022-12-19T07:44:17.944Z,56.07
2022-12-19T07:45:17.933Z,56.56
2022-12-19T07:46:18.036Z,57.36
2022-12-19T07:47:17.907Z,55.91
2022-12-19T07:48:18.756Z,56.72
2022-12-19T07:49:22.448Z,56.40
2022-12-19T07:50:18.897Z,56.07
2022-12-19T07:51:17.982Z,56.07
2022-12-19T07:52:18.811Z,57.85
2022-12-19T07:53:17.925Z,57.69
2022-12-19T07:54:18.004Z,55.91
2022-12-19T07:55:17.918Z,56.88
2022-12-19T07:56:17.915Z,55.91
2022-12-19T07:57:17.940Z,57.20
2022-12-19T07:58:17.880Z,56.72
2022-12-19T07:59:17.897Z,57.36
2022-12-19T08:00:17.880Z,57.52
2022-12-19T08:01:17.935Z,56.72
2022-12-19T08:02:17.981Z,56.56
2022-12-19T08:03:17.876Z,56.72
2022-12-19T08:04:17.860Z,57.04
2022-12-19T08:05:17.869Z,56.72
2022-12-19T08:06:17.847Z,55.59
2022-12-19T08:07:17.877Z,56.07
2022-12-19T08:08:17.869Z,56.07
2022-12-19T08:09:17.828Z,56.07
2022-12-19T08:10:17.892Z,56.24
2022-12-19T08:11:17.842Z,56.88
2022-12-19T08:12:17.834Z,56.88
2022-12-19T08:13:17.870Z,56.07
2022-12-19T08:14:17.787Z,55.43
2022-12-19T08:15:17.828Z,55.43
2022-12-19T08:16:17.847Z,55.75
2022-12-19T08:17:20.648Z,56.07
2022-12-19T08:18:18.805Z,57.20
2022-12-19T08:19:17.746Z,56.56
2022-12-19T08:20:17.735Z,56.56
2022-12-19T08:21:17.750Z,57.04
2022-12-19T08:22:17.779Z,56.56
2022-12-19T08:23:17.762Z,56.40
2022-12-19T08:24:17.979Z,56.88
2022-12-19T08:25:17.733Z,57.20
2022-12-19T08:26:17.812Z,55.91
2022-12-19T08:27:17.720Z,55.91
2022-12-19T08:28:17.690Z,55.59
2022-12-19T08:29:17.705Z,56.72
2022-12-19T08:30:17.607Z,58.49
2022-12-19T08:31:17.652Z,58.17
2022-12-19T08:32:21.229Z,58.33
2022-12-19T08:33:18.592Z,57.52
2022-12-19T08:34:17.606Z,56.40
2022-12-19T08:35:17.646Z,56.07
2022-12-19T08:36:17.559Z,57.20
2022-12-19T08:37:17.657Z,57.20
2022-12-19T08:38:17.849Z,59.78
2022-12-19T08:39:17.649Z,57.20
2022-12-19T08:40:17.725Z,57.52
2022-12-19T08:41:17.620Z,57.69
2022-12-19T08:42:17.742Z,58.17
2022-12-19T08:43:17.624Z,57.69
2022-12-19T08:44:17.618Z,57.20
2022-12-19T08:45:17.615Z,57.20
2022-12-19T08:46:17.701Z,56.88
2022-12-19T08:47:17.607Z,56.72
2022-12-19T08:48:17.580Z,56.24
2022-12-19T08:49:17.559Z,56.24
2022-12-19T08:50:17.575Z,56.56
2022-12-19T08:51:17.635Z,58.49
2022-12-19T08:52:17.708Z,58.01
2022-12-19T08:53:22.748Z,57.04
2022-12-19T08:54:19.468Z,57.20
2022-12-19T08:55:17.571Z,57.04
2022-12-19T08:56:17.596Z,56.56
2022-12-19T08:57:17.605Z,57.20
2022-12-19T08:58:17.597Z,57.69
2022-12-19T08:59:24.183Z,57.04
2022-12-19T09:00:18.490Z,54.79
2022-12-19T09:01:17.515Z,55.75
2022-12-19T09:02:17.763Z,57.69
2022-12-19T09:03:18.810Z,57.36
2022-12-19T09:05:57.212Z,56.72
2022-12-19T09:05:57.342Z,57.69
2022-12-19T09:06:18.851Z,57.85
2022-12-19T09:07:18.496Z,56.40
2022-12-19T09:08:17.498Z,57.04
2022-12-19T09:09:17.504Z,56.56
2022-12-19T09:10:18.451Z,56.72
2022-12-19T09:11:17.434Z,57.04
2022-12-19T09:12:17.405Z,55.75
2022-12-19T09:13:17.523Z,57.20
2022-12-19T09:14:21.268Z,57.04
2022-12-19T09:15:17.440Z,56.88
2022-12-19T09:16:17.465Z,55.91
2022-12-19T09:17:17.604Z,56.88
2022-12-19T09:18:17.393Z,57.20
2022-12-19T09:19:17.341Z,56.88
2022-12-19T09:20:22.942Z,58.01
2022-12-19T09:21:19.310Z,57.52
2022-12-19T09:22:17.323Z,56.88
2022-12-19T09:23:17.314Z,57.52
2022-12-19T09:24:17.372Z,55.75
2022-12-19T09:25:17.266Z,56.88
2022-12-19T09:26:17.283Z,56.72
2022-12-19T09:27:17.355Z,56.24
2022-12-19T09:28:27.363Z,56.07
2022-12-19T09:29:21.549Z,56.88
2022-12-19T09:30:17.316Z,58.17
2022-12-19T09:31:17.375Z,57.04
2022-12-19T09:32:17.365Z,57.04
2022-12-19T09:33:17.303Z,57.20
2022-12-19T09:34:17.398Z,57.36
2022-12-19T09:35:17.287Z,57.20
2022-12-19T09:36:17.329Z,56.56
2022-12-19T09:37:17.942Z,56.56
2022-12-19T09:38:18.469Z,58.01
2022-12-19T09:39:17.273Z,57.52
2022-12-19T09:40:17.310Z,57.04
2022-12-19T09:41:18.070Z,56.72
2022-12-19T09:42:17.271Z,57.20
2022-12-19T09:43:17.261Z,58.97
2022-12-19T09:44:17.215Z,57.52
2022-12-19T09:45:19.041Z,57.69
2022-12-19T09:46:18.379Z,58.97
2022-12-19T09:47:17.266Z,57.85
2022-12-19T09:48:23.691Z,57.20
2022-12-19T09:49:18.238Z,57.04
2022-12-19T09:50:17.208Z,57.04
2022-12-19T09:51:17.218Z,52.21
2022-12-19T09:52:17.229Z,52.85
2022-12-19T09:53:17.279Z,51.88
2022-12-19T09:54:18.170Z,55.11
2022-12-19T09:55:17.414Z,57.52
2022-12-19T09:56:17.150Z,55.11
2022-12-19T09:57:17.328Z,52.21
2022-12-19T09:58:17.255Z,53.01
2022-12-19T09:59:17.190Z,50.27
2022-12-19T10:00:17.195Z,51.08
2022-12-19T10:01:17.535Z,53.98
2022-12-19T10:02:17.533Z,52.85
2022-12-19T10:03:17.371Z,53.01
2022-12-19T10:04:17.126Z,55.43
2022-12-19T10:05:28.352Z,55.43
2022-12-19T10:07:10.958Z,55.27
2022-12-19T10:07:35.381Z,55.75
2022-12-19T10:08:18.993Z,53.66
2022-12-19T10:10:29.285Z,53.66
2022-12-19T10:12:35.270Z,54.95
2022-12-19T10:12:38.374Z,56.40
2022-12-19T10:12:44.271Z,57.20
2022-12-19T10:13:18.034Z,54.46
2022-12-19T10:14:17.072Z,55.27
2022-12-19T10:15:17.048Z,51.08
2022-12-19T10:16:17.176Z,53.50
2022-12-19T10:17:25.303Z,55.43
2022-12-19T10:18:19.223Z,53.17
2022-12-19T10:19:17.127Z,55.11
2022-12-19T10:20:17.102Z,52.69
2022-12-19T10:21:16.985Z,54.14
2022-12-19T10:22:19.152Z,54.14
2022-12-19T10:23:18.015Z,53.50
2022-12-19T10:24:16.992Z,53.82
2022-12-19T10:25:16.920Z,53.66
2022-12-19T10:26:16.979Z,53.50
2022-12-19T10:27:16.867Z,53.66
2022-12-19T10:28:16.873Z,55.59
2022-12-19T10:29:17.072Z,55.59
2022-12-19T10:30:16.862Z,54.62
2022-12-19T10:31:21.566Z,54.14
2022-12-19T10:32:18.907Z,54.46
2022-12-19T10:33:20.157Z,55.91
2022-12-19T10:34:18.129Z,54.30
2022-12-19T10:35:16.789Z,54.62
2022-12-19T10:36:16.857Z,52.69
2022-12-19T10:37:26.577Z,52.05
2022-12-19T10:38:17.787Z,53.50
2022-12-19T10:39:16.908Z,54.95
2022-12-19T10:40:22.240Z,52.05
2022-12-19T10:41:17.865Z,53.17
2022-12-19T10:42:16.861Z,55.43
2022-12-19T10:43:23.116Z,55.43
2022-12-19T10:44:18.746Z,54.95
2022-12-19T10:45:17.095Z,54.79
2022-12-19T10:46:16.882Z,53.50
2022-12-19T10:47:16.885Z,53.82
2022-12-19T10:48:16.808Z,53.82
2022-12-19T10:49:16.859Z,55.75
2022-12-19T10:50:16.867Z,56.72
2022-12-19T10:51:16.841Z,54.46
2022-12-19T10:52:16.801Z,54.95
2022-12-19T10:53:16.803Z,55.43
2022-12-19T10:54:16.749Z,56.24
2022-12-19T10:55:16.770Z,55.91
2022-12-19T10:56:16.788Z,56.40
2022-12-19T10:57:16.773Z,54.95
2022-12-19T10:58:16.861Z,53.98
2022-12-19T10:59:16.728Z,53.50
2022-12-19T11:00:16.803Z,52.69
2022-12-19T11:01:16.802Z,54.95
2022-12-19T11:02:16.922Z,53.66
2022-12-19T11:03:19.021Z,53.01
2022-12-19T11:04:16.742Z,53.33
2022-12-19T11:05:16.747Z,52.69
2022-12-19T11:06:17.207Z,52.85
2022-12-19T11:07:16.906Z,57.52
2022-12-19T11:08:16.671Z,52.05
2022-12-19T11:09:16.644Z,54.62
2022-12-19T11:11:10.308Z,53.82
2022-12-19T11:12:45.167Z,53.66
2022-12-19T11:15:39.577Z,52.85
2022-12-19T11:17:30.557Z,53.98
2022-12-19T11:19:16.087Z,53.98
2022-12-19T11:21:07.789Z,53.98
2022-12-19T11:21:56.213Z,54.62
2022-12-19T11:24:17.348Z,53.50
2022-12-19T11:27:34.406Z,55.43
2022-12-19T11:29:34.397Z,52.53
2022-12-19T11:29:40.454Z,54.14
2022-12-19T11:29:40.715Z,53.01
2022-12-19T11:29:44.436Z,53.33
2022-12-19T11:29:44.576Z,54.62
2022-12-19T11:30:36.760Z,53.33
2022-12-19T11:30:44.123Z,53.50
2022-12-19T11:30:45.505Z,56.07
2022-12-19T11:30:46.259Z,55.43
2022-12-19T11:30:47.444Z,52.85
2022-12-19T11:31:50.907Z,54.14
2022-12-19T11:31:58.413Z,51.72
2022-12-19T11:32:47.090Z,54.62
2022-12-19T11:33:18.796Z,54.46
2022-12-19T11:34:16.878Z,52.53
2022-12-19T11:35:16.566Z,54.30
2022-12-19T11:36:16.991Z,56.72
2022-12-19T11:37:17.054Z,54.95
2022-12-19T11:38:16.573Z,57.20
2022-12-19T11:39:17.442Z,55.27
2022-12-19T11:40:16.432Z,54.79
2022-12-19T11:41:16.687Z,54.46
2022-12-19T11:42:16.457Z,52.21
2022-12-19T11:44:18.573Z,51.72
2022-12-19T11:45:16.603Z,54.14
2022-12-19T11:46:21.817Z,52.53
2022-12-19T11:47:18.485Z,54.30
2022-12-19T11:48:16.445Z,54.14
2022-12-19T11:49:16.402Z,52.69
2022-12-19T11:50:16.493Z,52.21
2022-12-19T11:51:16.487Z,53.82
2022-12-19T11:52:54.135Z,55.11
2022-12-19T11:53:19.383Z,54.79
2022-12-19T11:54:17.530Z,55.75
2022-12-19T11:55:16.452Z,55.43
2022-12-19T11:56:17.748Z,54.95
2022-12-19T11:57:16.611Z,54.30
2022-12-19T11:58:16.585Z,52.69
2022-12-19T11:59:17.875Z,54.62
2022-12-19T12:00:17.256Z,55.43
2022-12-19T12:01:16.703Z,53.33
2022-12-19T12:02:16.952Z,52.05
2022-12-19T12:03:16.490Z,53.98
2022-12-19T12:04:16.653Z,54.14
2022-12-19T12:05:16.409Z,54.46
2022-12-19T12:06:16.402Z,53.17
2022-12-19T12:07:28.353Z,56.07
2022-12-19T12:09:24.378Z,57.20
2022-12-19T12:12:21.588Z,56.24
2022-12-19T12:15:05.239Z,52.53
2022-12-19T12:16:17.746Z,53.17
2022-12-19T12:17:49.641Z,57.36
2022-12-19T12:20:18.497Z,54.95
2022-12-19T12:24:07.653Z,56.07
2022-12-19T12:24:27.321Z,54.46
2022-12-19T12:26:36.113Z,56.24
2022-12-19T12:27:18.916Z,58.65
2022-12-19T12:31:05.338Z,56.88
2022-12-19T12:31:08.955Z,57.36
2022-12-19T12:31:09.930Z,56.24
2022-12-19T12:31:20.457Z,55.59
2022-12-19T12:31:27.090Z,57.36
2022-12-19T12:31:38.256Z,58.17
2022-12-19T12:31:39.144Z,57.36
2022-12-19T12:31:44.393Z,56.72
2022-12-19T12:31:46.587Z,54.95
2022-12-19T12:31:50.782Z,56.07
2022-12-19T12:31:52.736Z,54.95
2022-12-19T12:31:58.824Z,55.75
2022-12-19T12:35:11.058Z,57.20
2022-12-19T12:35:17.389Z,56.24
2022-12-19T12:35:30.228Z,53.50
2022-12-19T12:35:33.213Z,55.43
2022-12-19T12:35:33.433Z,55.11
2022-12-19T12:37:52.552Z,54.95
2022-12-19T12:38:27.524Z,56.72
2022-12-19T12:39:22.745Z,57.04
2022-12-19T12:40:23.740Z,58.01
2022-12-19T12:41:17.309Z,56.24
2022-12-19T12:42:16.437Z,58.01
2022-12-19T12:43:16.152Z,56.07
2022-12-19T12:44:16.435Z,55.43
2022-12-19T12:45:16.005Z,56.56
2022-12-19T12:46:16.035Z,57.36
2022-12-19T12:47:16.062Z,58.65
2022-12-19T12:48:16.361Z,54.79
2022-12-19T12:49:16.198Z,56.88
2022-12-19T12:50:15.963Z,56.72
2022-12-19T12:51:16.330Z,56.56
2022-12-19T12:52:16.129Z,55.43
2022-12-19T12:53:16.030Z,53.98
2022-12-19T12:54:16.166Z,54.62
2022-12-19T12:55:16.171Z,55.27
2022-12-19T12:56:16.031Z,53.98
2022-12-19T12:57:16.424Z,54.79
2022-12-19T12:58:20.854Z,56.24
2022-12-19T12:59:18.305Z,56.24
2022-12-19T13:00:16.789Z,56.24